Time;durP1;ratioP1;P1;durP2;ratioP2;P2;SDS_P1;SDS_P2;PMS_P1;PMS_P2;Temp;Humidity;BMP_temperature;BMP_pressure;BME280_temperature;BME280_humidity;BME280_pressure;Samples;Min_cycle;Max_cycle;Signal;HPM_P1;HPM_P2
2021/03/20 00:00:32;;;;;;;8.15;6.80;;;;;;;1.73;83.90;99691.02;1783744;79;21575;-66
2021/03/20 00:03:00;;;;;;;14.37;8.17;;;;;;;1.78;83.97;99695.24;1764279;81;21403;-66
2021/03/20 00:05:28;;;;;;;7.77;5.73;;;;;;;1.80;83.83;99697.20;1764700;79;21205;-68
2021/03/20 00:07:56;;;;;;;7.90;5.33;;;;;;;1.83;83.51;99698.13;1787603;78;21557;-68
2021/03/20 00:10:24;;;;;;;6.63;5.67;;;;;;;1.85;82.88;99696.13;1787709;78;21035;-68
2021/03/20 00:12:52;;;;;;;11.33;5.77;;;;;;;1.85;82.46;99693.47;1785871;80;21154;-73
2021/03/20 00:15:24;;;;;;;7.80;6.20;;;;;;;1.82;81.82;99705.80;1780741;80;21140;-68
2021/03/20 00:17:52;;;;;;;10.60;6.73;;;;;;;1.82;82.10;99702.33;1756592;81;21172;-68
2021/03/20 00:20:33;;;;;;;9.43;6.57;;;;;;;1.79;82.32;99696.06;1759528;81;20990;-68
2021/03/20 00:23:01;;;;;;;7.07;5.53;;;;;;;1.78;82.58;99701.88;1756906;80;21173;-67
2021/03/20 00:25:29;;;;;;;8.37;6.60;;;;;;;1.79;82.65;99696.06;1787124;80;21185;-66
2021/03/20 00:27:57;;;;;;;11.27;6.80;;;;;;;1.80;82.73;99701.69;1755016;80;22191;-66
2021/03/20 00:30:25;;;;;;;13.37;8.97;;;;;;;1.78;82.93;99700.55;1787143;80;21165;-67
2021/03/20 00:32:52;;;;;;;13.50;8.10;;;;;;;1.78;83.01;99707.67;1755111;81;21113;-68
2021/03/20 00:35:22;;;;;;;11.80;7.47;;;;;;;1.80;83.08;99703.02;1787588;80;21192;-66
2021/03/20 00:37:50;;;;;;;15.63;8.97;;;;;;;1.78;83.12;99712.47;1753239;81;21146;-68
2021/03/20 00:40:22;;;;;;;8.70;6.50;;;;;;;1.77;83.06;99710.04;1787144;80;21380;-68
2021/03/20 00:42:49;;;;;;;10.13;7.23;;;;;;;1.73;83.07;99709.58;1787196;78;21016;-69
2021/03/20 00:45:17;;;;;;;8.55;6.90;;;;;;;1.72;83.17;99704.81;1780911;80;20996;-66
2021/03/20 00:47:44;;;;;;;13.95;7.08;;;;;;;1.70;83.14;99701.52;1781009;80;21690;-66
2021/03/20 00:50:13;;;;;;;10.67;6.90;;;;;;;1.68;82.67;99704.03;1784439;79;21174;-72
2021/03/20 00:52:41;;;;;;;11.80;8.17;;;;;;;1.67;82.62;99700.59;1782755;80;21169;-67
2021/03/20 00:55:10;;;;;;;18.37;9.90;;;;;;;1.62;82.70;99702.17;1784008;80;21122;-69
2021/03/20 00:57:38;;;;;;;23.53;11.77;;;;;;;1.53;82.73;99695.38;1781484;80;21029;-66
2021/03/20 01:00:11;;;;;;;27.07;14.93;;;;;;;1.46;82.92;99697.95;1783758;80;21222;-68
2021/03/20 01:02:38;;;;;;;43.73;20.27;;;;;;;1.44;82.84;99701.29;1749877;82;21141;-67
2021/03/20 01:05:08;;;;;;;27.73;12.43;;;;;;;1.41;83.00;99699.03;1726934;81;21695;-68
2021/03/20 01:07:36;;;;;;;25.33;13.17;;;;;;;1.38;83.20;99695.45;1783855;80;21027;-65
2021/03/20 01:10:09;;;;;;;13.00;7.83;;;;;;;1.37;83.33;99694.30;1762359;80;21182;-66
2021/03/20 01:12:36;;;;;;;17.03;10.00;;;;;;;1.39;83.16;99694.95;1749730;82;21165;-67
2021/03/20 01:15:07;;;;;;;20.40;12.17;;;;;;;1.35;83.30;99696.31;1759406;81;21129;-66
2021/03/20 01:17:34;;;;;;;20.47;10.80;;;;;;;1.35;83.51;99693.66;1759486;80;21166;-68
2021/03/20 01:20:04;;;;;;;23.27;12.83;;;;;;;1.38;83.53;99698.60;1768601;81;21595;-67
2021/03/20 01:22:31;;;;;;;16.17;9.70;;;;;;;1.37;83.61;99689.83;1783319;80;21106;-67
2021/03/20 01:24:59;;;;;;;15.13;9.57;;;;;;;1.39;83.77;99697.06;1780843;80;21581;-65
2021/03/20 01:27:26;;;;;;;14.67;9.87;;;;;;;1.40;83.83;99693.41;1780925;80;21162;-68
2021/03/20 01:29:53;;;;;;;23.03;11.47;;;;;;;1.39;83.93;99690.97;1785039;80;21207;-63
2021/03/20 01:32:21;;;;;;;15.57;10.67;;;;;;;1.36;84.08;99696.13;1786758;80;21198;-62
2021/03/20 01:34:48;;;;;;;24.47;12.83;;;;;;;1.32;84.07;99700.18;1786914;78;21056;-65
2021/03/20 01:37:16;;;;;;;27.10;12.63;;;;;;;1.30;84.25;99696.38;1750650;81;21347;-64
2021/03/20 01:39:45;;;;;;;18.97;11.10;;;;;;;1.29;84.34;99697.92;1748347;81;21209;-67
2021/03/20 01:42:14;;;;;;;18.47;10.83;;;;;;;1.21;84.60;99702.82;1785407;80;22191;-65
2021/03/20 01:44:43;;;;;;;18.37;10.57;;;;;;;1.19;84.84;99700.06;1785089;80;21034;-68
2021/03/20 01:47:15;;;;;;;20.07;10.67;;;;;;;1.15;85.08;99699.59;1783600;80;21144;-70
2021/03/20 01:49:45;;;;;;;16.10;9.40;;;;;;;1.15;85.27;99706.22;1785369;80;21195;-64
2021/03/20 01:52:23;;;;;;;16.97;10.20;;;;;;;1.14;85.44;99700.62;1754053;81;21167;-65
2021/03/20 01:55:00;;;;;;;13.23;8.33;;;;;;;1.16;85.58;99703.06;1752093;81;21540;-66
2021/03/20 01:57:38;;;;;;;13.33;8.87;;;;;;;1.17;85.73;99704.22;1754667;80;21600;-67
2021/03/20 02:00:18;;;;;;;13.07;9.23;;;;;;;1.18;85.75;99708.51;1787141;80;21183;-65
2021/03/20 02:02:47;;;;;;;17.60;13.17;;;;;;;1.21;85.90;99713.92;1727220;81;21213;-64
2021/03/20 02:05:27;;;;;;;16.87;10.53;;;;;;;1.27;86.08;99710.02;1757235;81;21161;-64
2021/03/20 02:07:55;;;;;;;20.83;10.03;;;;;;;1.27;85.95;99712.67;1777716;80;21403;-66
2021/03/20 02:10:23;;;;;;;13.10;9.80;;;;;;;1.26;86.06;99712.84;1775049;80;21131;-65
2021/03/20 02:12:55;;;;;;;19.00;11.97;;;;;;;1.26;86.26;99718.14;1782705;79;21107;-66
2021/03/20 02:15:32;;;;;;;21.07;11.23;;;;;;;1.28;86.37;99712.98;1781156;80;21035;-66
2021/03/20 02:18:08;;;;;;;17.10;10.37;;;;;;;1.31;86.50;99719.72;1780554;80;21138;-65
2021/03/20 02:21:00;;;;;;;19.37;11.07;;;;;;;1.28;86.52;99719.61;1748928;80;21200;-65
2021/03/20 02:23:50;;;;;;;13.70;9.87;;;;;;;1.28;86.60;99719.61;1744110;82;21145;-67
2021/03/20 02:27:01;;;;;;;12.30;9.47;;;;;;;1.32;86.83;99726.67;1740332;80;21514;-66
2021/03/20 02:29:43;;;;;;;30.47;15.00;;;;;;;1.37;86.92;99728.75;1783903;79;21130;-66
2021/03/20 02:32:35;;;;;;;38.93;19.57;;;;;;;1.37;86.93;99730.90;1787664;79;21152;-64
2021/03/20 02:35:21;;;;;;;48.20;22.60;;;;;;;1.25;87.27;99733.22;1788019;80;21378;-66
2021/03/20 02:38:15;;;;;;;20.50;13.63;;;;;;;1.08;88.23;99735.80;1813519;77;21121;-64
2021/03/20 02:41:06;;;;;;;11.95;8.48;;;;;;;0.97;88.79;99734.14;1819921;78;21157;-63
2021/03/20 02:44:16;;;;;;;10.37;7.77;;;;;;;0.88;89.64;99726.81;1818322;78;21109;-65
2021/03/20 02:46:59;;;;;;;9.77;7.63;;;;;;;0.89;90.23;99736.41;1800733;78;21102;-65
2021/03/20 02:49:52;;;;;;;8.05;6.65;;;;;;;0.91;90.58;99725.14;1842388;77;21421;-66
2021/03/20 02:52:38;;;;;;;8.47;7.60;;;;;;;0.97;90.87;99728.84;1853390;77;20975;-65
2021/03/20 02:55:13;;;;;;;10.53;8.60;;;;;;;0.93;91.02;99722.28;1853595;77;20967;-63
2021/03/20 02:57:58;;;;;;;7.97;6.03;;;;;;;0.90;91.18;99723.99;1837352;77;21125;-65
2021/03/20 03:00:34;;;;;;;13.73;9.97;;;;;;;0.93;91.50;99727.58;1813893;77;21186;-66
2021/03/20 03:03:02;;;;;;;11.93;9.40;;;;;;;0.99;91.57;99726.34;1787374;78;21199;-67
2021/03/20 03:05:47;;;;;;;10.27;7.80;;;;;;;1.10;91.78;99727.18;1793294;78;21626;-67
2021/03/20 03:08:22;;;;;;;10.63;8.73;;;;;;;1.19;91.69;99730.02;1824537;77;20962;-65
2021/03/20 03:11:17;;;;;;;11.23;8.13;;;;;;;1.29;91.65;99723.09;1836179;77;21122;-65
2021/03/20 03:13:49;;;;;;;11.13;7.90;;;;;;;1.41;91.55;99725.53;1791560;78;21147;-67
2021/03/20 03:16:22;;;;;;;8.97;7.87;;;;;;;1.54;91.43;99728.29;1821180;78;22265;-66
2021/03/20 03:18:54;;;;;;;15.88;9.03;;;;;;;1.59;90.97;99731.19;1825901;78;21559;-68
2021/03/20 03:21:21;;;;;;;9.17;7.57;;;;;;;1.56;90.52;99730.77;1824213;78;21114;-67
2021/03/20 03:23:49;;;;;;;11.33;7.37;;;;;;;1.47;90.20;99735.38;1821823;77;21559;-68
2021/03/20 03:26:32;;;;;;;11.30;9.67;;;;;;;1.38;89.97;99743.64;1820408;78;21141;-67
2021/03/20 03:29:08;;;;;;;9.50;7.62;;;;;;;1.30;89.98;99741.42;1844650;77;21560;-66
2021/03/20 03:32:10;;;;;;;10.03;7.73;;;;;;;1.24;89.97;99742.70;1859464;76;21141;-66
2021/03/20 03:35:01;;;;;;;8.17;6.93;;;;;;;1.21;90.18;99746.53;1812524;77;21055;-65
2021/03/20 03:38:00;;;;;;;8.50;7.47;;;;;;;1.21;90.13;99743.05;1820423;78;21019;-66
2021/03/20 03:40:42;;;;;;;12.30;8.93;;;;;;;1.17;90.01;99745.27;1793403;80;21606;-67
2021/03/20 03:43:10;;;;;;;11.33;7.83;;;;;;;1.12;89.84;99746.83;1793479;80;21400;-66
2021/03/20 03:45:38;;;;;;;12.10;7.57;;;;;;;1.10;89.91;99740.92;1812240;77;21097;-64
2021/03/20 03:48:07;;;;;;;13.13;9.83;;;;;;;1.09;89.80;99743.25;1827262;77;21055;-65
2021/03/20 03:50:38;;;;;;;14.30;9.67;;;;;;;1.07;89.68;99746.57;1790363;78;21329;-65
2021/03/20 03:53:07;;;;;;;11.33;8.63;;;;;;;1.09;89.70;99746.72;1819446;78;21189;-65
2021/03/20 03:55:34;;;;;;;11.90;7.90;;;;;;;1.13;89.67;99745.83;1823634;77;21199;-65
2021/03/20 03:58:39;;;;;;;9.03;6.27;;;;;;;1.19;89.49;99751.71;1826951;77;21157;-64
2021/03/20 04:01:27;;;;;;;10.90;7.80;;;;;;;1.19;88.89;99750.39;1831805;77;21984;-68
2021/03/20 04:04:01;;;;;;;15.80;9.73;;;;;;;1.14;88.47;99746.98;1825496;78;22220;-66
2021/03/20 04:06:51;;;;;;;12.80;7.57;;;;;;;1.14;88.22;99755.42;1823233;77;21139;-65
2021/03/20 04:09:46;;;;;;;10.10;7.50;;;;;;;1.12;87.94;99764.05;1782205;79;21400;-65
2021/03/20 04:12:25;;;;;;;9.47;7.80;;;;;;;1.07;87.56;99755.84;1752545;81;21580;-64
2021/03/20 04:15:11;;;;;;;8.63;5.83;;;;;;;0.99;87.19;99758.61;1820198;78;22268;-65
2021/03/20 04:18:15;;;;;;;6.23;5.27;;;;;;;0.94;87.06;99763.64;1852490;77;21312;-64
2021/03/20 04:21:12;;;;;;;6.17;5.40;;;;;;;0.85;86.62;99765.59;1851789;77;21120;-64
2021/03/20 04:23:48;;;;;;;11.00;5.90;;;;;;;0.80;86.42;99770.61;1853759;77;21242;-66
2021/03/20 04:26:34;;;;;;;7.20;4.80;;;;;;;0.76;86.26;99768.84;1851913;77;22292;-66
2021/03/20 04:29:10;;;;;;;9.67;5.97;;;;;;;0.75;85.97;99770.34;1806706;77;21102;-65
2021/03/20 04:31:46;;;;;;;7.77;6.63;;;;;;;0.73;85.90;99773.16;1786635;78;21673;-66
2021/03/20 04:34:34;;;;;;;13.53;7.20;;;;;;;0.73;85.78;99770.52;1826532;77;21099;-64
2021/03/20 04:37:08;;;;;;;7.80;6.80;;;;;;;0.70;85.60;99773.55;1813198;79;22384;-65
2021/03/20 04:39:40;;;;;;;8.47;5.63;;;;;;;0.70;85.36;99780.16;1787958;80;21197;-64
2021/03/20 04:42:09;;;;;;;;;;;;;;;0.67;84.91;99775.22;1790431;80;21172;-65
2021/03/20 04:44:37;;;;;;;7.10;5.70;;;;;;;0.67;84.65;99774.42;1788018;80;20623;-65
2021/03/20 04:47:16;;;;;;;7.63;5.93;;;;;;;0.70;84.65;99777.52;1810658;77;21138;-64
2021/03/20 04:49:57;;;;;;;7.53;5.43;;;;;;;0.72;84.36;99774.16;1839528;77;22255;-65
2021/03/20 04:52:39;;;;;;;6.10;5.17;;;;;;;0.74;83.86;99781.93;1853607;77;20963;-66
2021/03/20 04:55:09;;;;;;;6.55;5.37;;;;;;;0.75;83.75;99779.61;1853854;77;21547;-64
2021/03/20 04:57:50;;;;;;;10.27;7.27;;;;;;;0.76;83.56;99783.91;1835722;77;21202;-64
2021/03/20 05:00:32;;;;;;;16.07;7.63;;;;;;;0.77;83.48;99785.52;1813351;79;21683;-65
2021/03/20 05:03:28;;;;;;;12.13;6.92;;;;;;;0.79;83.29;99789.64;1813366;79;22811;-64
2021/03/20 05:05:59;;;;;;;11.63;7.83;;;;;;;0.81;82.72;99788.14;1811591;79;21703;-64
2021/03/20 05:08:42;;;;;;;10.63;7.13;;;;;;;0.82;82.30;99791.08;1840649;77;21105;-65
2021/03/20 05:11:24;;;;;;;11.87;5.67;;;;;;;0.79;82.14;99786.99;1822920;77;21125;-64
2021/03/20 05:14:12;;;;;;;7.83;6.57;;;;;;;0.83;81.96;99790.08;1820070;78;21137;-63
2021/03/20 05:16:51;;;;;;;9.30;6.47;;;;;;;0.81;81.63;99792.94;1800536;77;21237;-65
2021/03/20 05:19:20;;;;;;;21.20;8.23;;;;;;;0.82;81.66;99797.70;1813226;79;21059;-65
2021/03/20 05:24:33;;;;;;;8.60;5.70;;;;;;;0.90;81.15;99796.80;1830804;77;22845;-65
2021/03/20 05:27:02;;;;;;;8.00;6.47;;;;;;;0.84;80.86;99802.33;1789288;79;21072;-65
2021/03/20 05:29:29;;;;;;;8.17;5.80;;;;;;;0.84;80.79;99798.35;1783636;80;21371;-63
2021/03/20 05:31:58;;;;;;;7.17;5.07;;;;;;;0.88;80.82;99806.23;1779097;80;21140;-64
2021/03/20 05:34:32;;;;;;;9.43;5.50;;;;;;;0.89;80.39;99803.91;1779978;79;21007;-65
2021/03/20 05:36:59;;;;;;;12.33;7.70;;;;;;;0.91;80.41;99803.24;1780569;80;21214;-63
2021/03/20 05:39:26;;;;;;;8.47;5.30;;;;;;;0.91;80.32;99809.86;1747172;81;20967;-63
2021/03/20 05:42:28;;;;;;;7.23;6.07;;;;;;;0.92;80.23;99804.03;1763520;81;22278;-65
2021/03/20 05:45:14;;;;;;;7.77;5.67;;;;;;;0.94;80.00;99817.42;1735336;81;21062;-65
2021/03/20 05:47:53;;;;;;;8.07;5.10;;;;;;;0.91;79.66;99815.16;1738712;81;20999;-64
2021/03/20 05:50:56;;;;;;;9.23;6.00;;;;;;;0.93;79.39;99820.24;1764837;81;21176;-63
2021/03/20 05:53:55;;;;;;;8.47;5.80;;;;;;;0.88;79.25;99816.83;1733630;82;21165;-64
2021/03/20 05:57:02;;;;;;;8.33;5.43;;;;;;;0.88;79.47;99817.66;1711498;82;22933;-63
2021/03/20 06:00:08;;;;;;;6.47;4.50;;;;;;;0.92;79.48;99822.07;1733499;82;21670;-64
2021/03/20 06:03:06;;;;;;;6.03;5.00;;;;;;;0.95;79.09;99824.37;1741887;81;21154;-66
2021/03/20 06:05:54;;;;;;;8.80;6.07;;;;;;;0.92;78.79;99833.98;1758865;81;21004;-68
2021/03/20 06:08:46;;;;;;;6.13;5.43;;;;;;;0.95;78.93;99835.45;1766932;81;21133;-65
2021/03/20 06:11:42;;;;;;;6.03;4.20;;;;;;;0.97;78.54;99826.31;1766475;81;21392;-65
2021/03/20 06:14:35;;;;;;;9.83;4.90;;;;;;;0.99;78.29;99829.61;1754877;81;21198;-65
2021/03/20 06:17:16;;;;;;;8.43;5.50;;;;;;;0.98;77.90;99835.91;1736569;82;21467;-64
2021/03/20 06:20:34;;;;;;;10.77;6.77;;;;;;;0.99;77.94;99836.73;1736633;82;21121;-66
2021/03/20 06:23:26;;;;;;;8.07;4.60;;;;;;;0.98;78.03;99839.88;1732241;81;21267;-64
2021/03/20 06:26:01;;;;;;;10.80;5.67;;;;;;;1.03;78.08;99845.94;1736141;81;21387;-65
2021/03/20 06:28:49;;;;;;;6.80;4.73;;;;;;;1.05;77.89;99846.09;1753252;81;21386;-65
2021/03/20 06:31:22;;;;;;;11.40;7.60;;;;;;;1.07;77.57;99844.06;1753266;81;21147;-63
2021/03/20 06:33:54;;;;;;;17.37;9.67;;;;;;;1.11;77.71;99841.86;1749048;81;21161;-65
2021/03/20 06:36:27;;;;;;;14.40;8.73;;;;;;;1.14;77.07;99852.09;1731537;81;21213;-67
2021/03/20 06:39:18;;;;;;;24.63;13.80;;;;;;;1.14;76.60;99854.75;1722823;83;22290;-66
2021/03/20 06:41:50;;;;;;;17.50;8.23;;;;;;;1.04;76.00;99866.95;1722679;83;21130;-66
2021/03/20 06:44:38;;;;;;;15.10;7.17;;;;;;;1.08;76.55;99864.25;1737396;81;21133;-67
2021/03/20 06:47:15;;;;;;;11.80;6.30;;;;;;;1.13;76.30;99861.87;1717632;81;21168;-66
2021/03/20 06:50:09;;;;;;;11.57;6.60;;;;;;;1.15;75.90;99867.78;1715940;81;21160;-66
2021/03/20 06:52:37;;;;;;;10.00;5.77;;;;;;;1.11;75.35;99859.89;1756253;81;21169;-67
2021/03/20 06:55:25;;;;;;;10.87;5.97;;;;;;;1.08;75.62;99869.55;1723247;81;21228;-68
2021/03/20 06:57:54;;;;;;;11.20;5.83;;;;;;;1.11;75.74;99865.69;1731142;82;21121;-67
2021/03/20 07:00:31;;;;;;;9.37;5.93;;;;;;;1.18;75.78;99875.88;1750528;81;21191;-68
2021/03/20 07:03:27;;;;;;;10.10;5.30;;;;;;;1.20;75.67;99868.05;1737828;81;21249;-68
2021/03/20 07:06:26;;;;;;;11.33;5.90;;;;;;;1.25;75.60;99872.30;1726787;81;21209;-67
2021/03/20 07:08:58;;;;;;;9.83;6.70;;;;;;;1.31;75.60;99872.89;1739713;81;21175;-74
2021/03/20 07:11:38;;;;;;;15.53;8.33;;;;;;;1.41;75.61;99872.59;1745010;81;21574;-69
2021/03/20 07:14:31;;;;;;;12.53;8.63;;;;;;;1.49;75.04;99874.30;1707791;83;21560;-66
2021/03/20 07:17:00;;;;;;;13.43;8.80;;;;;;;1.52;74.86;99880.57;1722879;82;21191;-67
2021/03/20 07:19:28;;;;;;;15.20;6.40;;;;;;;1.60;74.79;99882.59;1723029;83;22296;-67
2021/03/20 07:22:04;;;;;;;15.23;5.17;;;;;;;1.68;74.20;99886.95;1722866;83;21163;-68
2021/03/20 07:24:43;;;;;;;10.37;7.03;;;;;;;1.73;73.18;99889.86;1718466;82;21219;-68
2021/03/20 07:27:21;;;;;;;21.97;10.30;;;;;;;1.79;73.05;99893.59;1717257;83;21600;-67
2021/03/20 07:29:57;;;;;;;9.77;6.53;;;;;;;1.87;72.63;99893.50;1765278;79;21179;-68
2021/03/20 07:32:33;;;;;;;7.17;4.73;;;;;;;1.92;71.30;99894.55;1747648;81;21347;-68
2021/03/20 07:35:19;;;;;;;15.40;9.30;;;;;;;1.98;70.83;99896.45;1796902;79;21150;-69
2021/03/20 07:37:50;;;;;;;11.97;6.23;;;;;;;2.03;71.28;99892.72;1761911;81;21143;-68
2021/03/20 07:40:30;;;;;;;12.87;8.73;;;;;;;2.10;70.78;99900.75;1750130;80;21197;-67
2021/03/20 07:43:19;;;;;;;6.53;5.40;;;;;;;2.11;68.74;99903.20;1779793;80;21563;-67
2021/03/20 07:45:48;;;;;;;6.37;4.57;;;;;;;2.09;66.68;99904.41;1786553;79;22147;-67
2021/03/20 07:48:28;;;;;;;6.90;3.93;;;;;;;2.09;67.36;99907.06;1759246;79;21133;-68
2021/03/20 07:51:13;;;;;;;8.13;4.57;;;;;;;2.15;67.31;99904.98;1746293;82;21169;-67
2021/03/20 07:53:50;;;;;;;11.47;6.67;;;;;;;2.26;67.65;99910.27;1829194;75;22695;-67
2021/03/20 07:56:34;;;;;;;12.80;6.13;;;;;;;2.23;66.65;99912.81;1703383;82;21042;-68
2021/03/20 07:59:29;;;;;;;6.07;4.50;;;;;;;2.29;67.44;99907.25;1732273;82;22563;-66
2021/03/20 08:02:01;;;;;;;6.53;4.20;;;;;;;2.33;67.19;99913.31;1784964;80;21595;-68
2021/03/20 08:04:58;;;;;;;8.25;4.87;;;;;;;2.41;67.38;99911.84;1785038;80;21152;-66
2021/03/20 08:07:36;;;;;;;9.18;5.15;;;;;;;2.50;67.66;99912.02;1785064;80;21153;-66
2021/03/20 08:10:18;;;;;;;4.92;3.98;;;;;;;2.61;68.02;99910.16;1785037;79;21051;-70
2021/03/20 08:13:15;;;;;;;7.37;4.50;;;;;;;2.69;67.22;99905.70;1817116;79;21568;-67
2021/03/20 08:15:46;;;;;;;10.13;5.37;;;;;;;2.71;64.59;99911.16;1808647;78;21146;-68
2021/03/20 08:18:25;;;;;;;6.40;4.12;;;;;;;2.76;65.13;99915.38;1784906;80;21010;-67
2021/03/20 08:21:10;;;;;;;5.97;4.85;;;;;;;2.80;63.32;99915.30;1785470;79;21126;-68
2021/03/20 08:24:16;;;;;;;7.40;4.17;;;;;;;2.82;63.04;99907.97;1784992;80;22224;-65
2021/03/20 08:27:14;;;;;;;5.10;3.67;;;;;;;2.86;63.69;99917.69;1734826;82;21363;-67
2021/03/20 08:29:56;;;;;;;5.50;3.90;;;;;;;2.93;63.74;99918.54;1720386;83;21286;-67
2021/03/20 08:32:52;;;;;;;4.47;3.30;;;;;;;2.96;62.42;99916.34;1732078;82;21172;-66
2021/03/20 08:35:48;;;;;;;7.15;3.60;;;;;;;2.95;60.75;99922.66;1784928;80;21774;-69
2021/03/20 08:38:24;;;;;;;5.58;4.60;;;;;;;3.00;61.52;99916.77;1784955;80;21144;-68
2021/03/20 08:41:00;;;;;;;9.38;4.87;;;;;;;3.12;61.78;99927.14;1784805;80;22180;-68
2021/03/20 08:44:13;;;;;;;5.28;3.55;;;;;;;3.20;61.55;99922.19;1785047;80;21571;-66
2021/03/20 08:47:14;;;;;;;4.10;3.27;;;;;;;3.28;58.95;99947.27;1746879;82;21053;-68
2021/03/20 08:50:07;;;;;;;2.72;2.52;;;;;;;3.29;56.53;99932.46;1732437;82;21616;-66
2021/03/20 08:53:08;;;;;;;6.20;3.75;;;;;;;3.21;55.36;99929.16;1640196;82;21661;-68
2021/03/20 08:56:00;;;;;;;4.42;2.77;;;;;;;3.16;55.89;99925.75;1652389;86;21262;-67
2021/03/20 08:58:58;;;;;;;3.33;2.33;;;;;;;3.23;55.86;99914.64;1722783;82;21641;-67
2021/03/20 09:01:42;;;;;;;5.03;3.15;;;;;;;3.23;54.87;99914.64;1779012;80;21050;-67
2021/03/20 09:04:23;;;;;;;3.77;3.37;;;;;;;3.30;56.43;99914.68;1781498;80;21133;-67
2021/03/20 09:07:01;;;;;;;7.20;3.02;;;;;;;3.41;56.58;99909.61;1784167;80;21583;-68
2021/03/20 09:09:40;;;;;;;4.17;3.00;;;;;;;3.50;57.14;99916.92;1756389;80;21360;-66
2021/03/20 09:12:24;;;;;;;2.85;2.55;;;;;;;3.60;56.29;99908.57;1784148;80;21646;-65
2021/03/20 09:14:52;;;;;;;4.03;3.02;;;;;;;3.66;55.89;99910.41;1782369;80;21145;-68
2021/03/20 09:17:34;;;;;;;8.08;4.08;;;;;;;3.64;55.38;99915.13;1784263;79;21030;-68
2021/03/20 09:20:37;;;;;;;3.87;3.35;;;;;;;3.66;56.33;99905.09;1784308;80;21149;-66
2021/03/20 09:23:05;;;;;;;3.30;2.92;;;;;;;3.71;55.60;99917.28;1760281;80;21356;-67
2021/03/20 09:25:39;;;;;;;3.98;3.10;;;;;;;3.77;54.84;99913.33;1784364;79;21161;-66
2021/03/20 09:28:27;;;;;;;4.92;3.22;;;;;;;3.85;54.77;99924.28;1740301;82;21207;-65
2021/03/20 09:30:57;;;;;;;8.30;3.55;;;;;;;3.88;52.46;99923.91;1730091;82;21037;-69
2021/03/20 09:33:32;;;;;;;6.40;2.80;;;;;;;3.87;52.60;99921.75;1722347;82;21631;-66
2021/03/20 09:36:21;;;;;;;;;;;;;;;3.92;52.73;99925.13;1786987;80;21365;-65
2021/03/20 09:38:53;;;;;;;4.85;3.22;;;;;;;4.02;52.87;99929.56;1784106;80;20227;-67
2021/03/20 09:41:33;;;;;;;3.80;3.10;;;;;;;4.11;54.18;99932.34;1784238;80;21181;-67
2021/03/20 09:44:09;;;;;;;3.15;2.85;;;;;;;4.16;54.24;99921.09;1748199;82;21152;-69
2021/03/20 09:46:46;;;;;;;2.67;2.47;;;;;;;4.16;54.46;99923.24;1731492;82;21158;-67
2021/03/20 09:49:24;;;;;;;3.70;2.55;;;;;;;4.17;54.17;99921.41;1719858;83;21175;-67
2021/03/20 09:51:58;;;;;;;5.87;4.00;;;;;;;4.18;53.40;99913.70;1719799;83;21164;-69
2021/03/20 09:54:43;;;;;;;3.85;3.10;;;;;;;4.19;52.49;99927.33;1705084;82;21230;-66
2021/03/20 09:59:47;;;;;;;3.22;2.72;;;;;;;4.23;51.51;99914.73;1782570;80;21120;-64
2021/03/20 10:02:24;;;;;;;2.83;2.25;;;;;;;4.29;51.57;99915.27;1779350;80;22327;-67
2021/03/20 10:05:05;;;;;;;5.60;4.25;;;;;;;4.35;52.81;99917.63;1784363;80;21128;-67
2021/03/20 10:07:35;;;;;;;3.98;3.35;;;;;;;4.43;53.30;99917.92;1782080;79;21683;-66
2021/03/20 10:10:14;;;;;;;2.98;2.58;;;;;;;4.51;51.71;99923.07;1785721;79;21017;-67
2021/03/20 10:12:52;;;;;;;3.50;2.47;;;;;;;4.52;51.45;99928.68;1774386;80;22259;-65
2021/03/20 10:15:28;;;;;;;3.00;2.70;;;;;;;4.55;50.12;99915.80;1772110;80;21344;-67
2021/03/20 10:18:15;;;;;;;3.17;2.08;;;;;;;4.60;49.85;99915.18;1774053;80;21111;-66
2021/03/20 10:21:06;;;;;;;2.47;2.25;;;;;;;4.67;48.70;99918.64;1774193;80;21625;-65
2021/03/20 10:23:49;;;;;;;2.90;2.62;;;;;;;4.82;48.95;99909.92;1774963;80;21108;-66
2021/03/20 10:26:39;;;;;;;2.33;2.10;;;;;;;4.94;48.57;99908.79;1779982;80;21547;-67
2021/03/20 10:29:22;;;;;;;2.92;2.72;;;;;;;5.03;48.07;99905.70;1784111;80;21382;-66
2021/03/20 10:31:53;;;;;;;2.90;2.43;;;;;;;5.04;46.41;99925.14;1783407;80;21149;-65
2021/03/20 10:34:25;;;;;;;2.45;2.25;;;;;;;4.97;46.34;99915.84;1782851;80;21217;-65
2021/03/20 10:37:07;;;;;;;2.47;2.27;;;;;;;4.93;46.32;99914.63;1775659;80;21130;-66
2021/03/20 10:39:38;;;;;;;5.58;4.62;;;;;;;4.84;44.96;99910.01;1778337;79;21197;-66
2021/03/20 10:42:11;;;;;;;3.17;2.87;;;;;;;4.80;46.12;99902.64;1774491;80;21547;-69
2021/03/20 10:44:41;;;;;;;2.65;2.35;;;;;;;4.83;45.17;99917.72;1783354;80;21129;-70
2021/03/20 10:47:37;;;;;;;2.67;2.30;;;;;;;4.88;44.45;99914.44;1784097;80;21227;-67
2021/03/20 10:50:27;;;;;;;2.67;2.12;;;;;;;5.09;44.40;99913.34;1765665;79;21169;-66
2021/03/20 10:53:00;;;;;;;3.87;2.67;;;;;;;5.09;44.40;99913.34;1784269;80;21193;-66
2021/03/20 10:55:41;;;;;;;3.15;2.77;;;;;;;5.23;43.12;99914.44;1783155;80;21374;-67
2021/03/20 10:58:09;;;;;;;9.90;2.50;;;;;;;5.27;41.94;99890.86;1786558;80;21181;-67
2021/03/20 11:00:44;;;;;;;3.35;2.90;;;;;;;5.33;42.69;99899.84;1786959;80;21097;-67
2021/03/20 11:03:22;;;;;;;3.12;2.02;;;;;;;5.41;42.36;99900.96;1786974;80;21133;-73
2021/03/20 11:05:50;;;;;;;4.28;3.50;;;;;;;5.51;41.46;99892.82;1787086;80;21120;-67
2021/03/20 11:08:27;;;;;;;4.12;3.05;;;;;;;5.67;40.68;99904.32;1786940;80;21887;-69
2021/03/20 11:11:20;;;;;;;2.65;2.27;;;;;;;5.67;40.68;99904.32;1786635;80;20986;-69
2021/03/20 11:13:52;;;;;;;3.05;2.75;;;;;;;5.66;39.79;99904.52;1776459;80;21010;-67
2021/03/20 11:16:25;;;;;;;2.45;1.82;;;;;;;5.67;41.57;99905.66;1786758;80;20958;-65
2021/03/20 11:19:06;;;;;;;2.60;2.40;;;;;;;5.83;40.09;99911.02;1786883;80;21137;-65
2021/03/20 11:21:43;;;;;;;2.17;1.98;;;;;;;5.90;40.43;99899.81;1785648;80;21362;-67
2021/03/20 11:24:31;;;;;;;4.10;2.30;;;;;;;6.01;39.79;99925.83;1786741;80;21073;-64
2021/03/20 11:27:12;;;;;;;2.27;1.90;;;;;;;6.03;39.34;99910.94;1786825;80;21141;-64
2021/03/20 11:29:40;;;;;;;2.75;2.52;;;;;;;5.97;40.02;99901.11;1761867;80;21081;-71
2021/03/20 11:32:23;;;;;;;4.35;3.40;;;;;;;5.89;40.28;99902.72;1784786;80;21105;-73
2021/03/20 11:35:08;;;;;;;14.13;8.15;;;;;;;5.86;40.46;99899.09;1750182;82;21408;-73
2021/03/20 11:37:35;;;;;;;5.42;3.95;;;;;;;5.95;41.68;99898.66;1731499;82;21202;-68
2021/03/20 11:40:07;;;;;;;4.78;2.95;;;;;;;6.14;40.72;99898.22;1784075;80;21173;-68
2021/03/20 11:42:39;;;;;;;2.62;2.42;;;;;;;6.30;41.36;99895.03;1782260;80;21149;-68
2021/03/20 11:45:25;;;;;;;2.90;1.77;;;;;;;6.46;40.53;99897.70;1780174;80;21568;-67
2021/03/20 11:47:56;;;;;;;3.17;2.70;;;;;;;6.47;39.91;99893.48;1779578;80;21378;-67
2021/03/20 11:50:29;;;;;;;3.50;2.72;;;;;;;6.45;40.76;99887.52;1743083;82;21005;-66
2021/03/20 11:53:44;;;;;;;2.55;2.33;;;;;;;6.55;41.35;99888.37;1731255;82;21201;-66
2021/03/20 11:56:17;;;;;;;2.45;2.25;;;;;;;6.68;40.55;99890.91;1731337;82;21292;-67
2021/03/20 11:58:53;;;;;;;2.67;1.82;;;;;;;6.53;40.66;99895.25;1784193;80;21591;-67
2021/03/20 12:01:31;;;;;;;3.55;3.25;;;;;;;6.35;40.86;99905.89;1783510;80;22068;-67
2021/03/20 12:04:13;;;;;;;2.60;2.37;;;;;;;6.21;41.52;99888.33;1781835;80;21125;-66
2021/03/20 12:06:40;;;;;;;3.35;2.70;;;;;;;6.09;42.02;99881.52;1783905;80;21116;-67
2021/03/20 12:09:32;;;;;;;6.20;2.90;;;;;;;6.07;42.10;99886.27;1755924;80;20986;-67
2021/03/20 12:12:00;;;;;;;3.98;2.42;;;;;;;6.11;42.34;99887.98;1784095;80;21049;-67
2021/03/20 12:14:43;;;;;;;2.50;2.30;;;;;;;6.19;41.85;99877.03;1784061;80;21268;-66
2021/03/20 12:17:13;;;;;;;;;;;;;;;6.30;41.92;99883.02;1786752;80;21152;-66
2021/03/20 12:20:00;;;;;;;2.87;2.37;;;;;;;6.43;41.40;99875.41;1784207;80;20499;-67
2021/03/20 12:22:39;;;;;;;10.13;4.50;;;;;;;6.53;40.35;99871.72;1784005;80;21136;-66
2021/03/20 12:25:35;;;;;;;3.80;2.75;;;;;;;6.58;40.18;99859.86;1784134;80;21544;-68
2021/03/20 12:28:37;;;;;;;4.70;3.42;;;;;;;6.46;40.12;99871.80;1784168;80;21523;-67
2021/03/20 12:31:22;;;;;;;7.05;3.20;;;;;;;6.54;40.84;99874.70;1783929;80;21161;-67
2021/03/20 12:34:04;;;;;;;3.05;2.33;;;;;;;6.60;40.25;99874.34;1783994;80;21142;-66
2021/03/20 12:36:44;;;;;;;1.72;1.62;;;;;;;6.58;39.34;99856.67;1783794;80;21671;-66
2021/03/20 12:39:16;;;;;;;4.17;2.35;;;;;;;6.49;38.84;99858.50;1784006;80;21208;-67
2021/03/20 12:41:44;;;;;;;2.22;2.05;;;;;;;6.40;39.45;99859.82;1784019;80;21157;-67